Time;durP1;ratioP1;P1;durP2;ratioP2;P2;SDS_P1;SDS_P2;PMS_P1;PMS_P2;Temp;Humidity;BMP_temperature;BMP_pressure;BME280_temperature;BME280_humidity;BME280_pressure;Samples;Min_cycle;Max_cycle;Signal;HPM_P1;HPM_P2
2023/04/22 00:00:16;;;;;;;13.80;10.43;;;13.20;94.80;;;;;;5006037;28;20279;-69
2023/04/22 00:02:43;;;;;;;15.00;9.60;;;13.20;94.80;;;;;;5007466;28;20228;-69
2023/04/22 00:05:12;;;;;;;16.00;10.10;;;13.20;94.80;;;;;;5004775;28;20667;-69
2023/04/22 00:07:43;;;;;;;15.67;11.83;;;13.20;94.70;;;;;;5006937;28;21178;-70
2023/04/22 00:10:10;;;;;;;17.50;13.53;;;13.30;94.70;;;;;;5008193;28;20286;-69
2023/04/22 00:12:37;;;;;;;21.07;15.40;;;13.30;94.70;;;;;;5009457;28;20195;-70
2023/04/22 00:15:05;;;;;;;19.57;14.27;;;13.20;94.80;;;;;;5006652;28;20917;-69
2023/04/22 00:17:32;;;;;;;23.47;15.60;;;13.30;94.90;;;;;;5009805;28;20208;-69
2023/04/22 00:20:00;;;;;;;20.70;14.93;;;13.30;95.00;;;;;;5004084;28;20259;-69
2023/04/22 00:22:27;;;;;;;18.93;14.47;;;13.30;95.00;;;;;;5028116;28;20544;-69
2023/04/22 00:24:54;;;;;;;19.17;14.33;;;13.30;95.10;;;;;;5006230;28;20241;-69
2023/04/22 00:27:21;;;;;;;21.63;15.33;;;13.20;95.10;;;;;;5007725;28;20610;-69
2023/04/22 00:29:48;;;;;;;20.20;14.07;;;13.20;95.10;;;;;;5009339;28;20233;-69
2023/04/22 00:32:15;;;;;;;19.57;13.10;;;13.20;95.10;;;;;;5002453;28;20211;-69
2023/04/22 00:34:42;;;;;;;16.93;13.63;;;13.20;95.20;;;;;;5006326;28;20246;-69
2023/04/22 00:37:09;;;;;;;19.90;13.60;;;13.20;95.20;;;;;;5001129;28;20215;-69
2023/04/22 00:39:38;;;;;;;18.80;13.30;;;13.20;95.20;;;;;;4998835;28;20267;-69
2023/04/22 00:42:06;;;;;;;17.50;13.13;;;13.20;95.20;;;;;;5004559;28;20198;-69
2023/04/22 00:44:35;;;;;;;17.43;13.93;;;13.20;95.20;;;;;;5012076;28;20583;-69
2023/04/22 00:47:03;;;;;;;20.30;13.60;;;13.20;95.20;;;;;;5000664;28;20236;-69
2023/04/22 00:49:30;;;;;;;19.93;14.93;;;13.20;95.20;;;;;;5002765;28;20246;-70
2023/04/22 00:51:57;;;;;;;21.83;14.87;;;13.20;95.20;;;;;;5004288;28;20236;-69
2023/04/22 00:54:24;;;;;;;17.13;13.40;;;13.20;95.20;;;;;;5002244;28;20594;-69
2023/04/22 00:56:51;;;;;;;17.63;13.83;;;13.10;95.20;;;;;;5004747;28;20303;-69
2023/04/22 00:59:19;;;;;;;17.47;14.10;;;13.10;95.30;;;;;;5031110;28;20256;-69
2023/04/22 01:01:46;;;;;;;18.70;15.43;;;13.20;95.40;;;;;;5004679;28;20210;-69
2023/04/22 01:04:14;;;;;;;19.43;15.30;;;13.20;95.40;;;;;;5004604;28;20250;-69
2023/04/22 01:06:43;;;;;;;19.17;14.70;;;13.10;95.40;;;;;;5022432;28;20637;-69
2023/04/22 01:09:10;;;;;;;19.47;15.30;;;13.20;95.50;;;;;;5000019;28;20621;-69
2023/04/22 01:11:38;;;;;;;20.07;16.27;;;13.20;95.50;;;;;;5002534;28;20276;-69
2023/04/22 01:14:05;;;;;;;20.53;15.03;;;13.20;95.50;;;;;;5008875;28;20283;-69
2023/04/22 01:16:34;;;;;;;21.87;17.07;;;13.20;95.50;;;;;;5002119;28;20218;-69
2023/04/22 01:19:01;;;;;;;23.57;18.67;;;13.20;95.50;;;;;;5014091;28;20226;-69
2023/04/22 01:21:32;;;;;;;23.87;17.20;;;13.20;95.50;;;;;;5032557;28;20665;-69
2023/04/22 01:24:02;;;;;;;21.43;18.00;;;13.20;95.50;;;;;;5002813;28;20239;-69
2023/04/22 01:26:30;;;;;;;25.77;19.20;;;13.20;95.50;;;;;;5001502;28;20211;-69
2023/04/22 01:28:57;;;;;;;24.33;19.10;;;13.10;95.50;;;;;;5007472;28;20211;-69
2023/04/22 01:31:24;;;;;;;25.20;19.37;;;13.20;95.60;;;;;;5000076;28;20635;-69
2023/04/22 01:33:51;;;;;;;27.13;20.10;;;13.10;95.60;;;;;;5035062;28;20202;-69
2023/04/22 01:36:18;;;;;;;28.67;19.67;;;13.20;95.70;;;;;;5004229;28;20540;-69
2023/04/22 01:38:46;;;;;;;25.30;19.53;;;13.20;95.80;;;;;;5036615;28;20212;-69
2023/04/22 01:41:13;;;;;;;26.13;19.33;;;13.20;95.80;;;;;;5003365;28;20210;-70
2023/04/22 01:43:43;;;;;;;27.67;19.73;;;13.20;95.80;;;;;;5010808;28;20213;-69
2023/04/22 01:46:10;;;;;;;28.90;21.30;;;13.20;95.80;;;;;;5002496;28;20243;-69
2023/04/22 01:48:37;;;;;;;28.93;21.33;;;13.20;95.80;;;;;;5004750;28;20211;-69
2023/04/22 01:51:04;;;;;;;28.20;21.13;;;13.20;95.80;;;;;;5009863;28;20278;-69
2023/04/22 01:53:31;;;;;;;29.00;22.40;;;13.30;95.90;;;;;;5005233;28;20207;-69
2023/04/22 01:55:59;;;;;;;30.53;21.73;;;13.30;96.00;;;;;;5002858;28;20661;-70
2023/04/22 01:58:28;;;;;;;28.97;22.67;;;13.30;96.00;;;;;;5011806;28;20297;-69
2023/04/22 02:00:56;;;;;;;34.70;22.47;;;13.30;96.00;;;;;;5009225;28;20262;-69
2023/04/22 02:03:23;;;;;;;33.73;23.70;;;13.30;96.00;;;;;;5020018;28;20192;-69
2023/04/22 02:05:53;;;;;;;30.10;21.77;;;13.30;96.00;;;;;;5007213;28;20187;-70
2023/04/22 02:08:20;;;;;;;28.83;22.70;;;13.30;96.00;;;;;;5034550;28;20207;-69
2023/04/22 02:10:47;;;;;;;28.20;21.30;;;13.30;96.00;;;;;;5034801;28;20214;-69
2023/04/22 02:13:14;;;;;;;27.80;23.10;;;13.30;96.00;;;;;;5037244;28;20237;-69
2023/04/22 02:15:41;;;;;;;24.87;20.73;;;13.30;96.00;;;;;;5035138;28;20294;-69
2023/04/22 02:18:09;;;;;;;26.73;21.00;;;13.30;95.90;;;;;;5008138;28;20204;-69
2023/04/22 02:20:36;;;;;;;25.93;19.90;;;13.30;95.90;;;;;;5003152;28;20223;-69
2023/04/22 02:23:05;;;;;;;31.90;20.73;;;13.30;95.80;;;;;;5005063;28;20265;-69
2023/04/22 02:25:32;;;;;;;25.47;20.60;;;13.30;95.80;;;;;;5002734;28;20203;-69
2023/04/22 02:27:59;;;;;;;28.70;22.00;;;13.20;95.80;;;;;;5007711;28;20226;-69
2023/04/22 02:30:26;;;;;;;33.50;21.90;;;13.20;95.80;;;;;;5034562;28;20283;-69
2023/04/22 02:32:53;;;;;;;31.93;24.13;;;13.20;95.80;;;;;;5006557;28;20620;-69
2023/04/22 02:35:21;;;;;;;30.70;22.57;;;13.20;95.80;;;;;;5041142;28;20232;-69
2023/04/22 02:37:49;;;;;;;31.10;22.57;;;13.20;95.80;;;;;;5009096;28;20586;-69
2023/04/22 02:40:17;;;;;;;30.30;22.50;;;13.10;95.80;;;;;;5003260;28;20220;-69
2023/04/22 02:42:44;;;;;;;29.17;22.67;;;13.10;95.70;;;;;;5005330;28;20239;-69
2023/04/22 02:45:11;;;;;;;29.40;23.23;;;13.10;95.70;;;;;;5004342;28;20243;-69
2023/04/22 02:47:38;;;;;;;30.03;23.47;;;13.00;95.70;;;;;;5005938;28;20206;-69
2023/04/22 02:50:06;;;;;;;32.03;24.67;;;13.00;95.70;;;;;;5010710;28;20712;-69
2023/04/22 02:52:33;;;;;;;30.37;24.03;;;13.00;95.70;;;;;;5009465;28;20269;-69
2023/04/22 02:55:00;;;;;;;33.10;24.90;;;13.00;95.80;;;;;;5013760;28;20237;-69
2023/04/22 02:57:27;;;;;;;32.90;24.63;;;13.00;95.80;;;;;;5007954;28;20282;-69
2023/04/22 02:59:55;;;;;;;33.77;25.77;;;13.00;95.80;;;;;;5021494;28;20220;-69
2023/04/22 03:02:23;;;;;;;33.83;24.27;;;13.00;95.80;;;;;;5005480;28;20254;-69
2023/04/22 03:05:23;;;;;;;35.83;24.53;;;12.90;95.90;;;;;;5012664;28;20211;-69
2023/04/22 03:07:50;;;;;;;36.60;23.87;;;12.90;95.90;;;;;;5023917;28;20261;-70
2023/04/22 03:10:18;;;;;;;32.50;24.80;;;12.90;95.90;;;;;;5004335;28;20223;-69
2023/04/22 03:12:45;;;;;;;35.40;24.67;;;12.90;95.90;;;;;;5006108;28;20208;-69
2023/04/22 03:15:12;;;;;;;35.10;24.37;;;12.90;95.90;;;;;;5041777;28;20250;-69
2023/04/22 03:17:39;;;;;;;33.87;23.87;;;12.80;95.90;;;;;;5012277;28;20639;-69
2023/04/22 03:20:10;;;;;;;36.13;25.57;;;12.80;96.00;;;;;;5035195;28;20219;-68
2023/04/22 03:22:37;;;;;;;35.23;26.33;;;12.80;96.10;;;;;;5044053;28;20598;-70
2023/04/22 03:25:06;;;;;;;37.10;27.17;;;12.80;96.20;;;;;;5016023;28;20210;-69
2023/04/22 03:27:33;;;;;;;34.37;24.97;;;12.80;96.20;;;;;;5041629;28;20215;-69
2023/04/22 03:30:00;;;;;;;34.93;25.23;;;12.80;96.20;;;;;;5011466;28;20211;-69
2023/04/22 03:32:28;;;;;;;38.17;25.00;;;12.90;96.30;;;;;;5017537;28;20220;-69
2023/04/22 03:35:12;;;;;;;35.10;23.83;;;12.80;96.30;;;;;;5009477;28;20293;-69
2023/04/22 03:37:40;;;;;;;29.97;23.63;;;12.80;96.30;;;;;;5012781;28;20711;-69
2023/04/22 03:40:09;;;;;;;38.67;24.43;;;12.80;96.20;;;;;;5011939;28;20222;-69
2023/04/22 03:42:39;;;;;;;29.50;21.37;;;12.90;96.30;;;;;;5040331;28;20222;-69
2023/04/22 03:45:07;;;;;;;31.47;22.63;;;12.90;96.30;;;;;;5003569;28;20246;-69
2023/04/22 03:47:39;;;;;;;31.63;23.70;;;12.90;96.20;;;;;;5012415;28;20219;-69
2023/04/22 03:50:16;;;;;;;32.10;23.80;;;12.80;96.20;;;;;;5004586;28;20615;-69
2023/04/22 03:52:44;;;;;;;31.23;24.00;;;12.80;96.10;;;;;;5007015;28;20231;-69
2023/04/22 03:55:13;;;;;;;35.10;24.53;;;12.80;96.00;;;;;;5024321;28;20207;-69
2023/04/22 03:57:41;;;;;;;34.13;23.90;;;12.80;96.00;;;;;;5040279;28;20239;-69
2023/04/22 04:00:10;;;;;;;33.80;24.70;;;12.80;96.00;;;;;;5043527;28;20317;-69
2023/04/22 04:02:40;;;;;;;31.10;23.37;;;12.80;96.00;;;;;;5000597;28;20250;-69
2023/04/22 04:05:12;;;;;;;34.83;24.50;;;12.80;96.30;;;;;;4993802;28;20203;-69
2023/04/22 04:07:41;;;;;;;32.20;23.03;;;12.80;96.00;;;;;;5027323;28;20204;-69
2023/04/22 04:10:10;;;;;;;33.47;23.10;;;12.80;96.00;;;;;;5022953;28;20204;-69
2023/04/22 04:12:37;;;;;;;35.87;23.90;;;12.70;95.90;;;;;;5004321;28;20211;-69
2023/04/22 04:15:05;;;;;;;32.63;25.13;;;12.70;95.90;;;;;;4990570;28;20196;-69
2023/04/22 04:17:34;;;;;;;33.37;24.73;;;12.70;96.00;;;;;;5007226;28;20246;-69
2023/04/22 04:20:03;;;;;;;32.83;24.20;;;12.70;95.90;;;;;;5042985;28;20310;-69
2023/04/22 04:22:30;;;;;;;31.23;23.90;;;12.70;95.90;;;;;;5011525;28;20215;-69
2023/04/22 04:25:00;;;;;;;30.97;23.90;;;12.70;95.90;;;;;;5012163;28;20522;-68
2023/04/22 04:27:33;;;;;;;35.30;24.37;;;12.70;95.90;;;;;;5010780;28;20627;-69
2023/04/22 04:30:02;;;;;;;31.23;24.03;;;12.70;96.00;;;;;;5038102;28;20220;-69
2023/04/22 04:32:36;;;;;;;32.77;24.73;;;12.70;95.90;;;;;;5007695;28;20302;-69
2023/04/22 04:35:07;;;;;;;36.07;25.13;;;12.70;95.90;;;;;;5002000;28;20212;-69
2023/04/22 04:37:35;;;;;;;32.93;23.80;;;12.70;96.00;;;;;;5036183;28;20208;-69
2023/04/22 04:40:09;;;;;;;37.77;26.17;;;12.70;96.00;;;;;;5013457;28;20231;-69
2023/04/22 04:42:56;;;;;;;33.37;23.87;;;12.80;96.00;;;;;;5004339;28;20211;-69
2023/04/22 04:45:31;;;;;;;32.20;23.17;;;12.80;96.00;;;;;;5003606;28;20738;-69
2023/04/22 04:47:59;;;;;;;31.90;23.87;;;12.80;96.10;;;;;;5019844;28;20211;-69
2023/04/22 04:50:33;;;;;;;32.00;22.53;;;12.80;96.10;;;;;;5016119;28;20215;-68
2023/04/22 04:53:02;;;;;;;30.30;21.53;;;12.80;96.10;;;;;;5012158;28;20655;-69
2023/04/22 04:55:36;;;;;;;32.23;22.43;;;12.80;96.10;;;;;;4994258;28;20654;-68
2023/04/22 04:58:09;;;;;;;32.73;23.03;;;12.80;96.10;;;;;;5009949;28;20211;-69
2023/04/22 05:00:36;;;;;;;36.23;24.87;;;12.80;95.90;;;;;;5000725;28;20288;-68
2023/04/22 05:03:04;;;;;;;32.57;24.37;;;12.80;95.90;;;;;;5012070;28;20196;-69
2023/04/22 05:05:32;;;;;;;35.60;25.30;;;12.90;95.90;;;;;;5015951;28;20215;-68
2023/04/22 05:07:59;;;;;;;36.00;25.30;;;13.00;95.90;;;;;;5024071;28;20218;-70
2023/04/22 05:10:27;;;;;;;34.97;24.90;;;13.00;96.00;;;;;;5036939;28;20213;-69
2023/04/22 05:12:56;;;;;;;33.57;24.40;;;13.00;95.90;;;;;;5012910;28;20211;-69
2023/04/22 05:15:24;;;;;;;34.47;24.20;;;13.00;95.80;;;;;;5034746;28;20203;-69
2023/04/22 05:17:53;;;;;;;37.90;24.83;;;13.00;96.10;;;;;;5039803;28;20204;-69
2023/04/22 05:20:20;;;;;;;35.23;24.33;;;13.00;95.80;;;;;;5004663;28;20676;-69
2023/04/22 05:22:48;;;;;;;33.77;24.30;;;13.10;95.80;;;;;;5011533;28;20200;-69
2023/04/22 05:25:16;;;;;;;31.97;23.57;;;13.10;96.10;;;;;;5009416;28;20583;-69
2023/04/22 05:27:52;;;;;;;31.50;23.63;;;13.10;95.80;;;;;;5032586;28;20248;-69
2023/04/22 05:30:20;;;;;;;34.20;23.97;;;13.20;95.80;;;;;;5017152;28;20681;-69
2023/04/22 05:32:47;;;;;;;35.93;24.07;;;13.20;95.80;;;;;;5003035;28;20299;-69
2023/04/22 05:35:14;;;;;;;38.67;24.70;;;13.30;95.80;;;;;;5011447;28;20539;-69
2023/04/22 05:37:41;;;;;;;34.53;24.23;;;13.30;95.70;;;;;;5031913;28;20195;-69
2023/04/22 05:40:10;;;;;;;37.73;23.27;;;13.40;95.70;;;;;;5033366;28;20223;-69
2023/04/22 05:42:37;;;;;;;32.23;22.33;;;13.40;95.60;;;;;;5024705;28;20291;-68
2023/04/22 05:45:05;;;;;;;31.40;23.00;;;13.40;95.50;;;;;;5041246;28;20263;-69
2023/04/22 05:47:32;;;;;;;35.00;23.20;;;13.40;95.50;;;;;;5003721;28;20629;-68
2023/04/22 05:50:00;;;;;;;34.50;23.40;;;13.40;95.50;;;;;;5026723;28;20249;-68
2023/04/22 05:52:51;;;;;;;35.00;24.47;;;13.50;95.60;;;;;;5014658;28;20294;-68
2023/04/22 05:55:19;;;;;;;33.13;24.30;;;13.60;95.70;;;;;;5015688;28;20240;-68
2023/04/22 05:57:47;;;;;;;31.33;23.10;;;13.70;95.70;;;;;;5029902;28;20224;-68
2023/04/22 06:00:25;;;;;;;35.47;25.20;;;13.80;95.70;;;;;;5023434;28;20733;-68
2023/04/22 06:03:08;;;;;;;33.43;24.13;;;13.90;95.70;;;;;;5015734;28;20234;-68
2023/04/22 06:05:35;;;;;;;31.47;24.47;;;14.10;95.80;;;;;;5010161;28;20637;-68
2023/04/22 06:08:03;;;;;;;36.30;24.93;;;14.20;95.80;;;;;;5002529;28;20625;-68
2023/04/22 06:10:30;;;;;;;35.30;24.90;;;14.40;95.70;;;;;;5027364;28;20226;-68
2023/04/22 06:12:57;;;;;;;33.10;23.77;;;14.60;95.60;;;;;;5008691;28;20294;-69
2023/04/22 06:15:24;;;;;;;32.07;24.33;;;14.80;95.30;;;;;;5007868;28;20203;-68
2023/04/22 06:17:52;;;;;;;32.63;23.47;;;14.90;95.10;;;;;;5016756;28;20208;-69
2023/04/22 06:20:19;;;;;;;30.07;22.83;;;15.10;94.80;;;;;;5006740;28;20216;-69
2023/04/22 06:22:46;;;;;;;32.37;24.60;;;15.20;94.60;;;;;;5014027;28;20224;-69
2023/04/22 06:25:13;;;;;;;28.27;22.97;;;15.30;94.70;;;;;;5004717;28;20247;-69
2023/04/22 06:27:40;;;;;;;28.27;22.93;;;15.50;94.40;;;;;;5009230;28;20198;-69
2023/04/22 06:30:10;;;;;;;31.90;23.87;;;15.60;94.20;;;;;;5037724;28;20211;-69
2023/04/22 06:32:39;;;;;;;29.83;23.63;;;15.70;94.00;;;;;;5009775;28;20237;-69
2023/04/22 06:35:07;;;;;;;35.93;24.50;;;15.80;93.90;;;;;;5015498;28;20488;-69
2023/04/22 06:37:35;;;;;;;30.90;23.30;;;15.90;93.70;;;;;;5022562;28;20207;-69
2023/04/22 06:40:06;;;;;;;38.10;24.93;;;16.00;93.40;;;;;;5016301;28;20250;-69
2023/04/22 06:42:45;;;;;;;31.60;24.73;;;16.10;93.30;;;;;;5006993;28;20708;-68
2023/04/22 06:45:19;;;;;;;29.73;23.93;;;16.30;93.30;;;;;;5007115;28;20228;-69
2023/04/22 06:48:26;;;;;;;28.90;23.37;;;16.40;93.20;;;;;;4970953;28;20632;-69
2023/04/22 06:51:26;;;;;;;31.60;24.43;;;16.50;93.10;;;;;;4963972;28;20243;-68
2023/04/22 06:53:53;;;;;;;33.13;24.27;;;16.70;92.90;;;;;;5000575;28;20222;-69
2023/04/22 06:56:20;;;;;;;31.00;23.77;;;16.80;92.70;;;;;;5037135;28;20213;-69
2023/04/22 06:58:47;;;;;;;29.27;23.03;;;16.90;92.60;;;;;;5009884;28;20609;-69
2023/04/22 07:01:16;;;;;;;30.83;23.40;;;17.00;92.50;;;;;;5012676;28;20682;-69
2023/04/22 07:03:43;;;;;;;32.73;22.97;;;17.10;92.30;;;;;;5008385;28;20634;-69
2023/04/22 07:06:13;;;;;;;26.43;23.00;;;17.20;92.20;;;;;;5015003;28;20295;-68
2023/04/22 07:08:41;;;;;;;27.27;21.80;;;17.30;92.10;;;;;;5023964;28;20688;-69
2023/04/22 07:11:09;;;;;;;28.53;22.23;;;17.40;91.90;;;;;;5010105;28;20223;-69
2023/04/22 07:13:45;;;;;;;28.30;23.20;;;17.50;91.70;;;;;;5033984;28;20299;-69
2023/04/22 07:16:12;;;;;;;33.00;22.37;;;17.60;91.60;;;;;;5024540;28;20214;-69
2023/04/22 07:18:39;;;;;;;30.17;22.20;;;17.70;91.30;;;;;;5016320;28;20292;-69
2023/04/22 07:21:07;;;;;;;28.63;22.67;;;17.80;90.60;;;;;;5011053;28;20247;-69
2023/04/22 07:23:34;;;;;;;29.00;22.93;;;17.70;90.20;;;;;;5011102;28;20231;-69
2023/04/22 07:26:01;;;;;;;30.27;24.20;;;17.80;90.20;;;;;;5005786;28;20211;-69
2023/04/22 07:28:28;;;;;;;27.53;22.40;;;17.80;90.50;;;;;;5011419;28;20197;-69
2023/04/22 07:30:55;;;;;;;29.57;21.67;;;17.90;90.70;;;;;;5006413;28;20204;-68
2023/04/22 07:33:22;;;;;;;25.53;21.17;;;18.00;90.60;;;;;;5010554;28;20205;-68
2023/04/22 07:35:49;;;;;;;29.93;21.67;;;18.10;90.60;;;;;;5005426;28;20240;-69
2023/04/22 07:38:16;;;;;;;28.03;20.77;;;18.30;90.30;;;;;;5012642;28;20525;-68
2023/04/22 07:40:43;;;;;;;23.17;20.00;;;18.40;90.30;;;;;;5009944;28;20675;-68
2023/04/22 07:43:10;;;;;;;25.90;19.30;;;18.50;90.10;;;;;;5010493;28;20261;-69
2023/04/22 07:45:37;;;;;;;22.10;18.47;;;18.70;89.30;;;;;;5039782;28;20239;-69
2023/04/22 07:48:05;;;;;;;23.40;17.97;;;18.70;86.80;;;;;;5038548;28;20200;-69
2023/04/22 07:50:32;;;;;;;22.90;18.97;;;18.80;87.20;;;;;;5004422;28;20207;-69
2023/04/22 07:52:59;;;;;;;26.00;19.07;;;18.90;87.60;;;;;;5001935;28;20630;-70
2023/04/22 07:55:26;;;;;;;22.47;17.67;;;19.10;87.10;;;;;;5001272;28;20319;-69
2023/04/22 07:57:53;;;;;;;22.40;17.83;;;19.20;87.30;;;;;;5003467;28;20278;-69
2023/04/22 08:00:20;;;;;;;21.07;16.70;;;19.30;86.50;;;;;;5033572;28;20219;-69
2023/04/22 08:02:47;;;;;;;21.33;17.63;;;19.50;86.30;;;;;;5004282;28;20232;-70
2023/04/22 08:05:14;;;;;;;17.90;15.10;;;19.60;84.90;;;;;;5008617;28;20211;-69
2023/04/22 08:07:42;;;;;;;20.33;16.53;;;19.70;83.70;;;;;;5012148;28;20214;-70
2023/04/22 08:10:09;;;;;;;21.90;16.43;;;19.80;82.40;;;;;;5006826;28;20215;-69
2023/04/22 08:12:36;;;;;;;20.23;17.03;;;19.80;82.20;;;;;;5002257;28;20200;-70
2023/04/22 08:15:04;;;;;;;20.30;16.33;;;19.80;80.40;;;;;;5006016;28;20210;-70
2023/04/22 08:17:31;;;;;;;20.10;16.50;;;19.80;80.80;;;;;;5006655;28;20212;-69
2023/04/22 08:19:58;;;;;;;21.17;16.60;;;19.80;80.30;;;;;;5009319;28;20235;-69
2023/04/22 08:22:26;;;;;;;21.80;17.03;;;19.80;79.80;;;;;;5000968;28;20223;-69
2023/04/22 08:24:53;;;;;;;21.17;16.83;;;19.90;80.20;;;;;;5002989;28;20273;-69
2023/04/22 08:27:21;;;;;;;20.73;16.63;;;19.90;80.80;;;;;;5001967;28;20266;-70
2023/04/22 08:29:48;;;;;;;20.20;16.67;;;20.00;80.80;;;;;;5006191;28;20583;-70
2023/04/22 08:32:18;;;;;;;21.73;15.63;;;20.10;80.30;;;;;;5006429;28;20196;-70
2023/04/22 08:34:45;;;;;;;22.07;16.33;;;20.30;80.80;;;;;;5011413;28;20249;-70
2023/04/22 08:37:13;;;;;;;21.20;15.33;;;20.50;79.90;;;;;;5045458;28;20227;-70
2023/04/22 08:39:40;;;;;;;18.53;16.20;;;20.60;78.90;;;;;;5004072;28;20688;-70
2023/04/22 08:42:08;;;;;;;22.07;16.73;;;20.70;79.10;;;;;;5001295;28;20216;-70
2023/04/22 08:44:36;;;;;;;18.27;16.27;;;20.90;79.70;;;;;;5007626;28;20688;-70
2023/04/22 08:47:04;;;;;;;21.30;17.60;;;21.00;78.70;;;;;;5004440;28;20332;-70
2023/04/22 08:49:35;;;;;;;21.33;16.73;;;21.10;77.70;;;;;;5007418;28;20199;-70
2023/04/22 08:52:02;;;;;;;21.93;17.50;;;21.10;76.70;;;;;;5004248;28;20660;-71
2023/04/22 08:54:29;;;;;;;21.50;17.03;;;21.10;75.80;;;;;;5003575;28;20287;-71
2023/04/22 08:56:56;;;;;;;20.97;17.67;;;21.10;76.00;;;;;;5003122;28;20204;-71
2023/04/22 08:59:23;;;;;;;23.70;17.77;;;21.00;76.80;;;;;;5009814;28;20207;-71
2023/04/22 09:01:52;;;;;;;22.37;18.30;;;21.10;77.00;;;;;;5008529;28;20545;-71
2023/04/22 09:04:20;;;;;;;26.03;19.17;;;21.10;75.30;;;;;;5006532;28;20204;-71
2023/04/22 09:06:47;;;;;;;25.60;18.10;;;21.10;75.60;;;;;;5038421;28;20195;-71
2023/04/22 09:09:14;;;;;;;24.50;18.30;;;21.10;75.90;;;;;;5001769;28;20203;-71
2023/04/22 09:11:41;;;;;;;22.07;18.13;;;21.10;76.80;;;;;;5010078;28;20227;-71
2023/04/22 09:14:09;;;;;;;23.37;18.70;;;21.20;75.60;;;;;;5004291;28;20200;-71
2023/04/22 09:16:46;;;;;;;22.50;19.27;;;21.20;75.70;;;;;;5012913;28;20635;-71
2023/04/22 09:19:14;;;;;;;22.70;17.93;;;21.30;76.10;;;;;;5010668;28;20548;-72
2023/04/22 09:21:42;;;;;;;21.50;18.77;;;21.50;76.00;;;;;;5005597;28;20302;-72
2023/04/22 09:24:10;;;;;;;23.23;18.90;;;21.60;76.00;;;;;;4999618;28;20205;-73
2023/04/22 09:26:41;;;;;;;22.93;19.10;;;21.80;76.00;;;;;;5005847;28;20196;-72
2023/04/22 09:29:14;;;;;;;24.10;19.77;;;22.00;75.60;;;;;;5000722;28;20210;-71
2023/04/22 09:31:41;;;;;;;20.70;18.23;;;22.10;75.30;;;;;;5009225;28;20208;-72
2023/04/22 09:34:08;;;;;;;24.37;20.20;;;22.30;75.00;;;;;;5011670;28;20203;-72
2023/04/22 09:36:39;;;;;;;22.90;19.17;;;22.30;74.40;;;;;;5010559;28;20577;-72
2023/04/22 09:39:07;;;;;;;26.43;19.73;;;22.30;74.20;;;;;;5013422;28;20210;-70
2023/04/22 09:41:39;;;;;;;21.73;18.73;;;22.40;73.80;;;;;;5001670;28;20220;-72
2023/04/22 09:44:19;;;;;;;21.10;18.67;;;22.40;74.70;;;;;;5010123;28;20253;-72
2023/04/22 09:46:48;;;;;;;23.20;18.23;;;22.50;73.80;;;;;;5004880;28;20242;-71
2023/04/22 09:49:16;;;;;;;22.27;19.30;;;22.60;72.90;;;;;;5004463;28;20204;-72
2023/04/22 09:51:43;;;;;;;26.47;19.57;;;22.70;72.90;;;;;;5001370;28;20215;-72
2023/04/22 09:54:10;;;;;;;25.60;19.77;;;22.70;73.20;;;;;;5009840;28;20192;-72
2023/04/22 09:56:42;;;;;;;22.50;19.37;;;22.70;72.10;;;;;;5011689;28;20287;-71
2023/04/22 09:59:09;;;;;;;24.03;18.23;;;22.70;72.20;;;;;;5007112;28;20601;-72
2023/04/22 10:01:40;;;;;;;20.33;16.90;;;22.70;72.60;;;;;;5006224;28;20279;-73
2023/04/22 10:04:09;;;;;;;24.23;19.07;;;22.80;71.00;;;;;;5000130;28;20204;-72
2023/04/22 10:06:37;;;;;;;24.97;19.37;;;22.80;71.00;;;;;;4996266;28;20634;-72
2023/04/22 10:09:04;;;;;;;22.87;19.33;;;22.90;71.30;;;;;;5005385;28;20247;-72
2023/04/22 10:11:36;;;;;;;23.07;18.33;;;22.90;68.60;;;;;;5005213;28;20255;-71
2023/04/22 10:14:04;;;;;;;21.03;17.90;;;22.80;69.80;;;;;;5003051;28;20209;-72
2023/04/22 10:16:33;;;;;;;23.07;18.80;;;22.80;69.60;;;;;;5009660;28;20638;-72
2023/04/22 10:19:03;;;;;;;25.37;21.97;;;22.90;69.60;;;;;;5000260;28;20205;-72
2023/04/22 10:21:32;;;;;;;24.50;20.50;;;22.90;70.10;;;;;;5007868;28;20262;-72
2023/04/22 10:23:59;;;;;;;20.97;17.37;;;22.90;70.10;;;;;;4999781;28;20197;-71
2023/04/22 10:27:02;;;;;;;22.10;17.30;;;22.90;69.70;;;;;;5012622;28;20196;-71
2023/04/22 10:29:38;;;;;;;23.03;18.20;;;22.90;69.90;;;;;;5002603;28;20230;-72
2023/04/22 10:32:26;;;;;;;23.80;19.63;;;23.00;69.40;;;;;;5005417;28;20204;-72
2023/04/22 10:35:09;;;;;;;19.53;16.93;;;23.20;68.00;;;;;;5003600;28;20203;-71
2023/04/22 10:37:38;;;;;;;21.43;18.37;;;23.30;67.10;;;;;;5004054;28;20210;-72
2023/04/22 10:40:15;;;;;;;23.33;18.40;;;23.50;67.70;;;;;;5001773;28;20196;-72
2023/04/22 10:42:49;;;;;;;22.30;19.13;;;23.60;67.50;;;;;;5037169;28;20231;-71
2023/04/22 10:45:16;;;;;;;21.90;17.93;;;23.70;67.30;;;;;;5004155;28;20240;-72
2023/04/22 10:47:44;;;;;;;23.37;18.57;;;23.70;65.10;;;;;;5009612;28;20262;-72
2023/04/22 10:50:26;;;;;;;21.70;17.87;;;23.70;64.50;;;;;;5007999;28;20200;-72
2023/04/22 10:53:20;;;;;;;19.33;16.87;;;23.70;66.00;;;;;;5020809;28;20201;-72
2023/04/22 10:55:52;;;;;;;19.93;16.63;;;23.80;66.20;;;;;;5026946;28;20231;-72
2023/04/22 10:58:21;;;;;;;20.07;17.70;;;23.80;66.30;;;;;;5032271;28;20743;-72
2023/04/22 11:00:56;;;;;;;24.17;17.87;;;23.90;65.70;;;;;;5003390;28;20205;-70
2023/04/22 11:03:26;;;;;;;20.37;18.27;;;24.00;64.80;;;;;;5012558;28;20257;-72
2023/04/22 11:06:17;;;;;;;21.73;17.43;;;24.00;64.00;;;;;;5024441;28;20248;-70
2023/04/22 11:08:49;;;;;;;23.60;17.93;;;23.90;64.60;;;;;;5008853;28;20644;-71
2023/04/22 11:11:17;;;;;;;21.67;16.93;;;23.90;63.70;;;;;;5012875;28;20641;-71
2023/04/22 11:13:49;;;;;;;22.23;18.33;;;23.80;64.10;;;;;;5015405;28;20674;-73
2023/04/22 11:16:21;;;;;;;20.73;17.60;;;23.80;65.30;;;;;;5014434;28;20671;-71
2023/04/22 11:18:48;;;;;;;21.83;17.73;;;23.70;64.60;;;;;;5017798;28;20593;-71
2023/04/22 11:21:16;;;;;;;22.37;18.53;;;23.70;63.20;;;;;;5006147;28;20235;-72
2023/04/22 11:23:51;;;;;;;19.77;17.67;;;23.60;64.20;;;;;;5045566;28;20204;-72
2023/04/22 11:26:33;;;;;;;20.30;17.47;;;23.50;65.10;;;;;;5026813;28;20282;-72
2023/04/22 11:29:01;;;;;;;20.20;18.00;;;23.50;64.40;;;;;;5001863;28;20200;-71
2023/04/22 11:31:29;;;;;;;19.77;17.67;;;23.50;63.20;;;;;;5025129;28;20197;-72
2023/04/22 11:33:59;;;;;;;22.40;17.43;;;23.30;63.30;;;;;;5022966;28;20213;-71
2023/04/22 11:36:26;;;;;;;20.80;17.20;;;23.30;65.10;;;;;;5010686;28;20216;-71
2023/04/22 11:38:56;;;;;;;23.50;18.33;;;23.30;65.50;;;;;;5007095;28;20211;-70
2023/04/22 11:41:23;;;;;;;22.90;18.77;;;23.30;64.80;;;;;;5005439;28;20285;-72
2023/04/22 11:43:51;;;;;;;21.83;17.43;;;23.20;63.60;;;;;;5009352;28;20263;-71
2023/04/22 11:46:29;;;;;;;20.13;16.87;;;23.20;64.70;;;;;;5008239;28;20228;-71
2023/04/22 11:49:13;;;;;;;19.83;17.03;;;23.30;64.70;;;;;;5004851;28;20291;-71
2023/04/22 11:51:56;;;;;;;18.80;15.43;;;23.40;63.90;;;;;;5017761;28;20211;-72
2023/04/22 11:54:34;;;;;;;17.07;14.93;;;23.40;61.90;;;;;;5033975;28;20270;-71
2023/04/22 11:57:03;;;;;;;20.20;16.13;;;23.30;62.40;;;;;;5008722;28;20206;-71
2023/04/22 11:59:30;;;;;;;19.77;15.40;;;23.30;62.60;;;;;;5003047;28;20235;-72
2023/04/22 12:01:57;;;;;;;18.33;16.33;;;23.30;62.50;;;;;;5005552;28;20228;-71
2023/04/22 12:04:24;;;;;;;19.07;15.63;;;23.30;63.60;;;;;;5009840;28;20538;-68
2023/04/22 12:06:51;;;;;;;18.27;15.03;;;23.30;63.00;;;;;;5011447;28;20192;-68
2023/04/22 12:09:23;;;;;;;17.53;14.07;;;23.30;63.40;;;;;;5027513;28;20206;-71
2023/04/22 12:11:51;;;;;;;17.03;14.97;;;23.20;62.90;;;;;;5006798;28;20212;-71
2023/04/22 12:14:18;;;;;;;18.83;14.83;;;23.20;63.30;;;;;;5009047;28;20287;-73
2023/04/22 12:16:45;;;;;;;20.37;15.47;;;23.20;62.60;;;;;;5039703;28;20302;-70
2023/04/22 12:19:12;;;;;;;16.90;14.40;;;23.10;63.20;;;;;;5006692;28;20204;-72
2023/04/22 12:21:41;;;;;;;15.77;13.40;;;23.00;62.20;;;;;;5033436;28;20251;-71
2023/04/22 12:24:13;;;;;;;18.30;15.23;;;23.00;64.00;;;;;;5003834;28;20288;-71
2023/04/22 12:26:41;;;;;;;18.53;15.43;;;23.00;63.90;;;;;;5008867;28;20649;-72
2023/04/22 12:29:08;;;;;;;14.43;11.90;;;22.90;62.90;;;;;;5019801;28;20216;-70
2023/04/22 12:31:37;;;;;;;14.03;11.90;;;22.90;63.70;;;;;;5005227;28;20274;-70
2023/04/22 12:34:05;;;;;;;15.30;12.80;;;22.80;62.10;;;;;;5023378;28;20204;-72
2023/04/22 12:36:32;;;;;;;10.90;9.20;;;22.80;60.50;;;;;;5024109;28;20218;-71
2023/04/22 12:38:59;;;;;;;12.17;10.63;;;22.70;62.00;;;;;;5036140;28;20208;-70